createdAt,value
2022-08-27T00:00:27.787Z,19.40
2022-08-27T00:03:15.750Z,19.37
2022-08-27T00:06:03.655Z,19.55
2022-08-27T00:08:51.986Z,19.35
2022-08-27T00:11:39.442Z,19.30
2022-08-27T00:14:28.460Z,19.25
2022-08-27T00:17:15.959Z,19.04
2022-08-27T00:20:04.863Z,18.88
2022-08-27T00:22:52.512Z,18.84
2022-08-27T00:25:39.588Z,18.75
2022-08-27T00:28:27.677Z,18.80
2022-08-27T00:31:14.833Z,18.89
2022-08-27T00:34:02.132Z,19.06
2022-08-27T00:36:49.243Z,18.96
2022-08-27T00:39:37.151Z,19.03
2022-08-27T00:42:24.130Z,18.73
2022-08-27T00:45:11.975Z,18.87
2022-08-27T00:48:01.006Z,18.76
2022-08-27T00:50:52.025Z,18.55
2022-08-27T00:53:39.405Z,18.66
2022-08-27T00:56:48.700Z,18.47
2022-08-27T00:59:41.454Z,18.29
2022-08-27T01:02:30.837Z,18.72
2022-08-27T01:05:25.426Z,18.45
2022-08-27T01:08:17.678Z,18.85
2022-08-27T01:11:04.780Z,18.78
2022-08-27T01:14:00.075Z,18.72
2022-08-27T01:16:52.019Z,18.56
2022-08-27T01:19:48.187Z,18.70
2022-08-27T01:23:17.533Z,18.72
2022-08-27T01:26:08.377Z,18.52
2022-08-27T01:28:55.857Z,18.34
2022-08-27T01:31:43.303Z,18.72
2022-08-27T01:34:30.780Z,18.33
2022-08-27T01:37:23.789Z,18.49
2022-08-27T01:40:13.473Z,18.34
2022-08-27T01:43:04.811Z,18.47
2022-08-27T01:45:52.791Z,18.56
2022-08-27T01:48:40.174Z,18.43
2022-08-27T01:51:28.025Z,18.47
2022-08-27T01:54:15.527Z,18.65
2022-08-27T01:57:02.706Z,18.76
2022-08-27T01:59:50.081Z,18.65
2022-08-27T02:02:37.181Z,18.41
2022-08-27T02:05:25.088Z,18.43
2022-08-27T02:08:13.457Z,18.38
2022-08-27T02:11:01.152Z,18.05
2022-08-27T02:13:48.666Z,18.05
2022-08-27T02:16:37.303Z,18.16
2022-08-27T02:19:30.078Z,18.01
2022-08-27T02:22:17.221Z,17.77
2022-08-27T02:25:06.684Z,17.78
2022-08-27T02:28:00.647Z,17.89
2022-08-27T02:30:47.767Z,17.87
2022-08-27T02:33:35.114Z,17.77
2022-08-27T02:36:22.687Z,17.80
2022-08-27T02:39:10.764Z,18.20
2022-08-27T02:41:57.845Z,18.16
2022-08-27T02:44:45.563Z,18.47
2022-08-27T02:47:33.493Z,18.07
2022-08-27T02:50:20.731Z,18.06
2022-08-27T02:53:14.097Z,18.11
2022-08-27T02:56:01.257Z,18.06
2022-08-27T02:58:48.606Z,17.86
2022-08-27T03:01:36.597Z,17.96
2022-08-27T03:04:23.784Z,18.06
2022-08-27T03:07:14.204Z,18.36
2022-08-27T03:10:06.546Z,17.95
2022-08-27T03:12:53.514Z,17.87
2022-08-27T03:15:40.524Z,17.78
2022-08-27T03:18:27.568Z,17.74
2022-08-27T03:21:21.391Z,17.88
2022-08-27T03:24:11.232Z,18.10
2022-08-27T03:27:02.152Z,18.41
2022-08-27T03:29:49.144Z,17.86
2022-08-27T03:32:36.439Z,17.78
2022-08-27T03:35:23.660Z,17.50
2022-08-27T03:38:10.788Z,17.33
2022-08-27T03:40:57.840Z,17.53
2022-08-27T03:43:45.877Z,17.65
2022-08-27T03:46:32.875Z,17.61
2022-08-27T03:49:21.559Z,17.57
2022-08-27T03:52:10.065Z,17.83
2022-08-27T03:54:58.771Z,17.98
2022-08-27T03:57:46.046Z,18.26
2022-08-27T04:00:32.988Z,18.16
2022-08-27T04:03:20.116Z,18.21
2022-08-27T04:06:07.349Z,18.10
2022-08-27T04:08:54.342Z,18.31
2022-08-27T04:11:41.337Z,18.46
2022-08-27T04:14:28.319Z,18.39
2022-08-27T04:17:15.487Z,18.38
2022-08-27T04:20:24.916Z,18.00
2022-08-27T04:23:09.920Z,18.02
2022-08-27T04:25:56.953Z,18.17
2022-08-27T04:28:48.568Z,17.91
2022-08-27T04:31:35.907Z,18.11
2022-08-27T04:34:22.969Z,18.38
2022-08-27T04:37:10.034Z,18.13
2022-08-27T04:39:57.324Z,17.99
2022-08-27T04:42:44.495Z,17.92
2022-08-27T04:45:31.459Z,18.09
2022-08-27T04:48:19.642Z,17.95
2022-08-27T04:51:06.663Z,18.08
2022-08-27T04:53:54.182Z,18.15
2022-08-27T04:56:41.475Z,18.16
2022-08-27T04:59:28.904Z,18.00
2022-08-27T05:02:16.625Z,18.38
2022-08-27T05:05:03.735Z,18.29
2022-08-27T05:07:50.767Z,18.41
2022-08-27T05:10:46.405Z,18.08
2022-08-27T05:13:33.386Z,17.94
2022-08-27T05:16:22.254Z,18.03
2022-08-27T05:19:14.657Z,18.11
2022-08-27T05:22:01.731Z,18.28
2022-08-27T05:24:50.548Z,18.56
2022-08-27T05:27:37.644Z,18.47
2022-08-27T05:30:25.567Z,18.50
2022-08-27T05:33:15.247Z,18.46
2022-08-27T05:36:02.360Z,18.44
2022-08-27T05:38:50.366Z,18.41
2022-08-27T05:41:37.391Z,18.57
2022-08-27T05:44:41.293Z,18.81
2022-08-27T05:47:29.361Z,18.77
2022-08-27T05:50:18.755Z,18.78
2022-08-27T05:53:07.890Z,18.81
2022-08-27T05:55:54.816Z,18.68
2022-08-27T05:59:00.889Z,18.43
2022-08-27T06:01:50.765Z,18.67
2022-08-27T06:04:37.709Z,19.02
2022-08-27T06:07:24.656Z,19.20
2022-08-27T06:10:12.154Z,19.24
2022-08-27T06:12:59.312Z,18.92
2022-08-27T06:15:46.345Z,18.95
2022-08-27T06:18:34.860Z,18.44
2022-08-27T06:21:24.630Z,18.57
2022-08-27T06:24:13.069Z,18.91
2022-08-27T06:27:00.147Z,19.02
2022-08-27T06:29:47.196Z,18.81
2022-08-27T06:32:34.672Z,18.97
2022-08-27T06:35:22.185Z,18.91
2022-08-27T06:38:10.009Z,18.95
2022-08-27T06:40:58.524Z,19.08
2022-08-27T06:43:46.939Z,19.23
2022-08-27T06:46:34.092Z,19.10
2022-08-27T06:49:21.090Z,19.08
2022-08-27T06:52:08.213Z,18.87
2022-08-27T06:54:56.319Z,19.10
2022-08-27T06:57:43.707Z,19.10
2022-08-27T07:00:30.724Z,18.92
2022-08-27T07:03:17.817Z,19.13
2022-08-27T07:06:06.361Z,19.90
2022-08-27T07:08:53.983Z,19.62
2022-08-27T07:11:41.365Z,19.62
2022-08-27T07:14:29.634Z,19.61
2022-08-27T07:17:19.187Z,18.93
2022-08-27T07:20:07.161Z,18.84
2022-08-27T07:22:54.677Z,19.05
2022-08-27T07:25:42.269Z,19.30
2022-08-27T07:28:29.658Z,19.28
2022-08-27T07:31:19.183Z,19.66
2022-08-27T07:34:06.867Z,19.91
2022-08-27T07:36:53.855Z,20.13
2022-08-27T07:39:40.840Z,20.28
2022-08-27T07:42:48.616Z,20.94
2022-08-27T07:45:45.159Z,21.48
2022-08-27T07:48:36.497Z,21.56
2022-08-27T07:51:27.508Z,21.41
2022-08-27T07:54:15.581Z,21.11
2022-08-27T07:57:02.693Z,20.46
2022-08-27T07:59:49.761Z,20.37
2022-08-27T08:02:37.416Z,20.52
2022-08-27T08:05:24.475Z,21.10
2022-08-27T08:08:11.952Z,20.66
2022-08-27T08:10:59.200Z,20.74
2022-08-27T08:13:47.375Z,21.15
2022-08-27T08:16:34.388Z,21.02
2022-08-27T08:19:22.197Z,20.57
2022-08-27T08:22:09.193Z,20.71
2022-08-27T08:24:59.656Z,20.49
2022-08-27T08:27:48.164Z,20.35
2022-08-27T08:30:35.582Z,20.70
2022-08-27T08:33:22.882Z,20.89
2022-08-27T08:36:12.762Z,20.64
2022-08-27T08:38:59.843Z,21.13
2022-08-27T08:41:52.561Z,21.50
2022-08-27T08:44:50.490Z,21.49
2022-08-27T08:47:48.993Z,21.96
2022-08-27T08:51:12.965Z,22.02
2022-08-27T08:54:03.737Z,21.02
2022-08-27T08:57:01.593Z,21.46
2022-08-27T09:00:01.394Z,20.95
2022-08-27T09:02:54.753Z,21.08
2022-08-27T09:05:48.220Z,21.53
2022-08-27T09:08:42.427Z,21.76
2022-08-27T09:11:32.733Z,21.73
2022-08-27T09:14:41.402Z,21.69
2022-08-27T09:17:35.231Z,21.84
2022-08-27T09:20:25.577Z,21.42
2022-08-27T09:23:36.481Z,20.96
2022-08-27T09:26:27.558Z,21.28
2022-08-27T09:29:19.897Z,21.84
2022-08-27T09:32:09.312Z,21.25
2022-08-27T09:35:03.244Z,22.37
2022-08-27T09:37:54.399Z,22.15
2022-08-27T09:40:47.097Z,23.57
2022-08-27T09:43:34.707Z,21.61
2022-08-27T09:46:24.374Z,21.53
2022-08-27T09:49:15.362Z,22.66
2022-08-27T09:52:02.734Z,22.11
2022-08-27T09:54:55.717Z,22.58
2022-08-27T09:57:42.781Z,24.02
2022-08-27T10:00:37.458Z,24.99
2022-08-27T10:03:24.896Z,25.48
2022-08-27T10:06:12.113Z,25.31
2022-08-27T10:09:11.764Z,23.41
2022-08-27T10:12:19.518Z,22.82
2022-08-27T10:15:07.380Z,22.34
2022-08-27T10:18:12.202Z,23.84
2022-08-27T10:21:10.188Z,23.54
2022-08-27T10:24:15.388Z,24.42
2022-08-27T10:27:18.729Z,26.89
2022-08-27T10:30:15.999Z,25.84
2022-08-27T10:33:27.907Z,23.93
2022-08-27T10:36:20.884Z,25.28
2022-08-27T10:39:48.671Z,24.62
2022-08-27T10:42:52.042Z,24.25
2022-08-27T10:46:06.399Z,24.81
2022-08-27T10:49:09.172Z,22.23
2022-08-27T10:52:18.633Z,21.71
2022-08-27T10:55:11.134Z,22.05
2022-08-27T10:58:16.013Z,21.70
2022-08-27T11:01:06.513Z,21.72
2022-08-27T11:04:03.310Z,21.71
2022-08-27T11:07:07.077Z,21.57
2022-08-27T11:10:02.134Z,21.85
2022-08-27T11:12:54.359Z,21.37
2022-08-27T11:15:46.792Z,21.86
2022-08-27T11:18:58.275Z,21.76
2022-08-27T11:22:17.219Z,22.03
2022-08-27T11:25:13.813Z,22.54
2022-08-27T11:28:04.110Z,23.78
2022-08-27T11:30:55.277Z,25.73
2022-08-27T11:33:51.319Z,24.61
2022-08-27T11:36:54.061Z,24.20
2022-08-27T11:40:05.688Z,22.78
2022-08-27T11:43:00.692Z,21.82
2022-08-27T11:45:59.896Z,21.93
2022-08-27T11:49:00.346Z,22.14
2022-08-27T11:51:58.754Z,21.95
2022-08-27T11:54:48.751Z,22.21
2022-08-27T11:57:37.636Z,22.28
2022-08-27T12:00:27.473Z,21.73
2022-08-27T12:03:20.300Z,20.56
2022-08-27T12:06:19.610Z,21.00
2022-08-27T12:09:16.233Z,20.22
2022-08-27T12:12:21.840Z,19.96
2022-08-27T12:15:17.799Z,20.36
2022-08-27T12:18:28.409Z,20.87
2022-08-27T12:21:34.119Z,20.67
2022-08-27T12:24:41.053Z,20.42
2022-08-27T12:27:36.442Z,20.62
2022-08-27T12:30:41.400Z,21.43
2022-08-27T12:33:28.460Z,20.75
2022-08-27T12:36:27.545Z,21.18
2022-08-27T12:39:19.009Z,21.28
2022-08-27T12:42:14.194Z,20.76
2022-08-27T12:45:01.276Z,20.95
2022-08-27T12:47:50.837Z,21.06
2022-08-27T12:50:38.617Z,20.63
2022-08-27T12:53:38.328Z,20.67
2022-08-27T12:56:28.233Z,20.40
2022-08-27T12:59:16.009Z,20.51
2022-08-27T13:02:25.324Z,20.68
2022-08-27T13:05:13.058Z,20.55
2022-08-27T13:08:00.008Z,20.97
2022-08-27T13:10:47.100Z,20.96
2022-08-27T13:13:34.123Z,21.00
2022-08-27T13:16:22.860Z,20.72
2022-08-27T13:19:18.062Z,20.72
2022-08-27T13:22:07.143Z,20.65
2022-08-27T13:24:56.155Z,21.16
2022-08-27T13:27:55.976Z,19.81
2022-08-27T13:30:46.040Z,20.51
2022-08-27T13:33:36.472Z,20.93
2022-08-27T13:36:28.783Z,20.99
2022-08-27T13:39:20.027Z,20.59
2022-08-27T13:42:08.552Z,21.21
2022-08-27T13:45:02.139Z,20.47
2022-08-27T13:47:50.311Z,20.91
2022-08-27T13:50:37.696Z,20.74
2022-08-27T13:53:52.911Z,21.12
2022-08-27T13:56:42.527Z,20.59
2022-08-27T13:59:32.108Z,21.13
2022-08-27T14:02:32.645Z,22.04
2022-08-27T14:05:27.477Z,21.82
2022-08-27T14:08:18.015Z,20.72
2022-08-27T14:11:08.403Z,22.01
2022-08-27T14:13:57.001Z,22.10
2022-08-27T14:16:44.102Z,21.56
2022-08-27T14:19:36.713Z,21.90
2022-08-27T14:22:23.925Z,21.84
2022-08-27T14:25:12.097Z,21.53
2022-08-27T14:27:59.212Z,22.19
2022-08-27T14:30:48.024Z,22.45
2022-08-27T14:33:36.226Z,22.46
2022-08-27T14:36:24.862Z,22.88
2022-08-27T14:39:12.989Z,22.13
2022-08-27T14:42:00.876Z,23.07
2022-08-27T14:44:47.943Z,22.71
2022-08-27T14:47:38.412Z,22.41
2022-08-27T14:50:25.408Z,22.47
2022-08-27T14:53:12.581Z,22.34
2022-08-27T14:56:01.822Z,23.15
2022-08-27T14:58:49.655Z,21.80
2022-08-27T15:01:38.210Z,22.11
2022-08-27T15:04:26.775Z,21.29
2022-08-27T15:07:15.202Z,21.91
2022-08-27T15:10:02.204Z,21.97
2022-08-27T15:12:49.389Z,22.32
2022-08-27T15:15:36.652Z,22.31
2022-08-27T15:18:23.739Z,21.42
2022-08-27T15:21:10.755Z,21.37
2022-08-27T15:24:01.672Z,22.44
2022-08-27T15:26:49.789Z,22.24
2022-08-27T15:29:36.800Z,21.91
2022-08-27T15:32:30.921Z,22.54
2022-08-27T15:35:22.994Z,22.46
2022-08-27T15:38:11.053Z,22.58
2022-08-27T15:40:58.168Z,22.72
2022-08-27T15:43:45.226Z,22.61
2022-08-27T15:46:32.269Z,22.51
2022-08-27T15:49:19.305Z,21.72
2022-08-27T15:52:07.114Z,21.88
2022-08-27T15:54:54.190Z,22.51
2022-08-27T15:57:41.193Z,22.65
2022-08-27T16:00:30.157Z,22.51
2022-08-27T16:03:17.164Z,22.59
2022-08-27T16:06:05.615Z,22.34
2022-08-27T16:08:53.208Z,21.66
2022-08-27T16:11:40.893Z,21.59
2022-08-27T16:14:27.858Z,21.31
2022-08-27T16:17:14.912Z,22.09
2022-08-27T16:20:02.169Z,22.47
2022-08-27T16:22:50.346Z,21.69
2022-08-27T16:25:37.639Z,21.33
2022-08-27T16:28:25.056Z,21.50
2022-08-27T16:31:13.892Z,22.02
2022-08-27T16:34:01.455Z,22.18
2022-08-27T16:36:48.636Z,21.61
2022-08-27T16:39:40.485Z,21.67
2022-08-27T16:42:27.719Z,21.09
2022-08-27T16:45:16.816Z,20.34
2022-08-27T16:48:22.533Z,20.04
2022-08-27T16:51:16.020Z,20.34
2022-08-27T16:54:05.454Z,20.03
2022-08-27T16:56:55.211Z,20.16
2022-08-27T16:59:43.135Z,19.93
2022-08-27T17:02:35.024Z,19.84
2022-08-27T17:05:38.005Z,19.79
2022-08-27T17:08:27.438Z,19.76
2022-08-27T17:11:21.082Z,19.97
2022-08-27T17:14:10.761Z,19.66
2022-08-27T17:16:57.711Z,19.47
2022-08-27T17:19:45.781Z,19.65
2022-08-27T17:22:33.875Z,19.02
2022-08-27T17:25:20.911Z,19.56
2022-08-27T17:28:16.238Z,19.68
2022-08-27T17:31:03.295Z,19.25
2022-08-27T17:33:52.790Z,19.10
2022-08-27T17:36:39.797Z,18.94
2022-08-27T17:39:31.378Z,19.09
2022-08-27T17:42:18.405Z,18.80
2022-08-27T17:45:06.402Z,18.53
2022-08-27T17:47:53.395Z,18.81
2022-08-27T17:50:40.624Z,19.20
2022-08-27T17:53:28.126Z,18.80
2022-08-27T17:56:21.281Z,18.79
2022-08-27T17:59:08.977Z,18.70
2022-08-27T18:01:57.348Z,18.38
2022-08-27T18:04:44.348Z,18.74
2022-08-27T18:07:34.698Z,18.73
2022-08-27T18:10:25.977Z,18.79
2022-08-27T18:13:14.910Z,18.74
2022-08-27T18:16:01.941Z,18.71
2022-08-27T18:18:48.931Z,18.67
2022-08-27T18:21:36.477Z,18.52
2022-08-27T18:24:33.414Z,18.34
2022-08-27T18:27:29.036Z,18.26
2022-08-27T18:30:16.437Z,18.46
2022-08-27T18:33:03.740Z,18.52
2022-08-27T18:35:51.878Z,18.41
2022-08-27T18:38:38.967Z,18.70
2022-08-27T18:41:29.392Z,18.76
2022-08-27T18:44:17.531Z,18.57
2022-08-27T18:47:05.388Z,18.84
2022-08-27T18:49:52.435Z,19.12
2022-08-27T18:52:40.751Z,19.18
2022-08-27T18:55:28.235Z,19.09
2022-08-27T18:58:15.417Z,19.30
2022-08-27T19:01:03.475Z,19.23
2022-08-27T19:03:52.271Z,18.63
2022-08-27T19:06:39.216Z,18.57
2022-08-27T19:09:26.367Z,18.74
2022-08-27T19:12:14.614Z,18.61
2022-08-27T19:15:01.665Z,18.78
2022-08-27T19:17:54.079Z,18.95
2022-08-27T19:20:41.118Z,18.75
2022-08-27T19:23:28.480Z,18.76
2022-08-27T19:26:19.187Z,18.92
2022-08-27T19:29:06.553Z,19.27
2022-08-27T19:31:53.655Z,19.13
2022-08-27T19:34:40.674Z,19.03
2022-08-27T19:37:30.522Z,18.42
2022-08-27T19:40:17.699Z,18.38
2022-08-27T19:43:05.285Z,18.44
2022-08-27T19:45:52.536Z,18.74
2022-08-27T19:48:39.540Z,18.64
2022-08-27T19:51:26.542Z,18.61
2022-08-27T19:54:13.655Z,18.92
2022-08-27T19:57:00.778Z,19.10
2022-08-27T19:59:48.051Z,19.07
2022-08-27T20:02:35.046Z,19.08
2022-08-27T20:05:23.329Z,18.48
2022-08-27T20:08:10.693Z,18.48
2022-08-27T20:11:00.545Z,18.27
2022-08-27T20:13:50.618Z,18.05
2022-08-27T20:16:38.146Z,18.24
2022-08-27T20:19:25.609Z,18.03
2022-08-27T20:22:12.589Z,18.15
2022-08-27T20:24:59.703Z,18.07
2022-08-27T20:27:47.781Z,18.14
2022-08-27T20:30:35.112Z,18.07
2022-08-27T20:33:22.085Z,18.05
2022-08-27T20:36:09.283Z,18.21
2022-08-27T20:38:56.292Z,18.02
2022-08-27T20:41:43.539Z,17.82
2022-08-27T20:44:31.730Z,17.99
2022-08-27T20:47:19.161Z,18.11
2022-08-27T20:50:06.650Z,18.13
2022-08-27T20:52:54.092Z,18.09
2022-08-27T20:55:41.148Z,17.92
2022-08-27T20:58:46.780Z,18.05
2022-08-27T21:01:34.593Z,18.02
2022-08-27T21:04:22.145Z,18.00
2022-08-27T21:07:09.611Z,18.13
2022-08-27T21:09:57.633Z,18.24
2022-08-27T21:12:45.356Z,18.16
2022-08-27T21:15:32.340Z,17.91
2022-08-27T21:18:29.365Z,17.92
2022-08-27T21:21:17.031Z,18.09
2022-08-27T21:24:04.349Z,17.94
2022-08-27T21:26:51.923Z,17.93
2022-08-27T21:29:39.047Z,17.87
2022-08-27T21:32:26.096Z,17.92
2022-08-27T21:35:13.843Z,18.02
2022-08-27T21:38:01.673Z,18.11
2022-08-27T21:40:48.713Z,18.12
2022-08-27T21:43:35.707Z,18.31
2022-08-27T21:46:22.741Z,18.60
2022-08-27T21:49:11.124Z,18.73
2022-08-27T21:51:59.828Z,18.73
2022-08-27T21:54:46.792Z,18.64
2022-08-27T21:57:33.853Z,17.94
2022-08-27T22:00:28.246Z,18.23
2022-08-27T22:03:17.735Z,18.34
2022-08-27T22:06:07.313Z,18.55
2022-08-27T22:08:54.289Z,18.49
2022-08-27T22:11:41.723Z,18.51
2022-08-27T22:14:31.804Z,18.49
2022-08-27T22:17:18.891Z,18.69
2022-08-27T22:20:08.362Z,18.69
2022-08-27T22:22:57.148Z,18.58
2022-08-27T22:25:44.347Z,17.82
2022-08-27T22:28:31.303Z,17.82
2022-08-27T22:31:18.521Z,17.98
2022-08-27T22:34:06.226Z,18.36
2022-08-27T22:36:53.290Z,18.16
2022-08-27T22:39:40.239Z,18.06
2022-08-27T22:42:27.405Z,17.87
2022-08-27T22:45:15.407Z,17.68
2022-08-27T22:48:02.637Z,17.67
2022-08-27T22:50:49.593Z,17.78
2022-08-27T22:53:37.085Z,17.86
2022-08-27T22:56:26.819Z,17.49
2022-08-27T22:59:13.990Z,17.27
2022-08-27T23:02:01.660Z,17.37
2022-08-27T23:04:57.398Z,17.61
2022-08-27T23:07:45.234Z,17.32
2022-08-27T23:10:32.220Z,17.62
2022-08-27T23:13:19.168Z,17.70
2022-08-27T23:16:09.092Z,18.12
2022-08-27T23:18:56.148Z,18.17
2022-08-27T23:21:43.748Z,18.25
2022-08-27T23:24:30.784Z,18.42
2022-08-27T23:27:29.624Z,17.88
2022-08-27T23:30:18.377Z,18.02
2022-08-27T23:33:05.464Z,17.95
2022-08-27T23:35:52.479Z,17.93
2022-08-27T23:38:39.552Z,17.90
2022-08-27T23:41:27.006Z,17.93
2022-08-27T23:44:14.128Z,17.76
2022-08-27T23:47:01.696Z,17.62
2022-08-27T23:49:48.715Z,17.84
2022-08-27T23:52:37.112Z,18.02
2022-08-27T23:55:24.487Z,18.09
2022-08-27T23:58:11.795Z,17.98
